createdAt,value
2022-08-17T00:00:07.233Z,26.85
2022-08-17T00:03:15.439Z,26.74
2022-08-17T00:05:54.307Z,26.78
2022-08-17T00:08:25.920Z,26.69
2022-08-17T00:10:55.409Z,26.53
2022-08-17T00:13:30.317Z,26.34
2022-08-17T00:16:01.014Z,26.33
2022-08-17T00:18:57.453Z,26.32
2022-08-17T00:21:23.943Z,26.37
2022-08-17T00:23:55.091Z,26.26
2022-08-17T00:26:43.607Z,26.32
2022-08-17T00:29:16.469Z,26.20
2022-08-17T00:31:47.807Z,26.19
2022-08-17T00:34:15.307Z,26.15
2022-08-17T00:36:42.491Z,26.08
2022-08-17T00:39:10.055Z,25.98
2022-08-17T00:41:42.186Z,25.97
2022-08-17T00:44:12.454Z,26.19
2022-08-17T00:46:42.297Z,26.12
2022-08-17T00:49:11.261Z,26.08
2022-08-17T00:51:53.021Z,26.07
2022-08-17T00:54:25.669Z,26.15
2022-08-17T00:57:04.967Z,26.18
2022-08-17T00:59:39.282Z,26.21
2022-08-17T01:02:09.877Z,26.17
2022-08-17T01:04:37.907Z,26.25
2022-08-17T01:07:06.103Z,26.41
2022-08-17T01:09:34.313Z,26.36
2022-08-17T01:12:02.084Z,26.48
2022-08-17T01:14:29.293Z,26.56
2022-08-17T01:16:56.993Z,26.69
2022-08-17T01:19:29.020Z,26.77
2022-08-17T01:22:11.880Z,26.86
2022-08-17T01:24:47.767Z,26.78
2022-08-17T01:27:18.460Z,26.85
2022-08-17T01:29:53.613Z,26.78
2022-08-17T01:32:20.921Z,26.60
2022-08-17T01:34:50.502Z,26.50
2022-08-17T01:37:21.231Z,26.43
2022-08-17T01:39:57.753Z,26.42
2022-08-17T01:42:25.147Z,26.36
2022-08-17T01:44:58.248Z,26.34
2022-08-17T01:47:26.228Z,26.13
2022-08-17T01:49:53.723Z,26.19
2022-08-17T01:52:22.422Z,26.28
2022-08-17T01:54:51.546Z,26.21
2022-08-17T01:57:18.768Z,26.25
2022-08-17T01:59:46.232Z,26.23
2022-08-17T02:02:31.395Z,26.39
2022-08-17T02:04:59.851Z,26.45
2022-08-17T02:07:27.401Z,26.29
2022-08-17T02:09:54.980Z,26.21
2022-08-17T02:12:47.940Z,26.24
2022-08-17T02:15:12.678Z,26.34
2022-08-17T02:17:41.140Z,26.44
2022-08-17T02:20:10.099Z,26.40
2022-08-17T02:22:40.627Z,26.47
2022-08-17T02:25:09.961Z,26.35
2022-08-17T02:27:39.396Z,26.40
2022-08-17T02:30:49.895Z,26.33
2022-08-17T02:32:56.890Z,26.09
2022-08-17T02:35:24.059Z,26.09
2022-08-17T02:37:55.666Z,26.17
2022-08-17T02:40:36.145Z,26.19
2022-08-17T02:43:04.606Z,26.28
2022-08-17T02:45:31.759Z,26.25
2022-08-17T02:47:59.135Z,26.24
2022-08-17T02:50:26.616Z,26.14
2022-08-17T02:53:02.244Z,26.11
2022-08-17T02:55:33.707Z,26.24
2022-08-17T02:58:02.526Z,26.21
2022-08-17T03:00:36.177Z,26.12
2022-08-17T03:03:06.115Z,26.18
2022-08-17T03:05:37.448Z,26.35
2022-08-17T03:08:06.466Z,26.21
2022-08-17T03:10:34.152Z,26.20
2022-08-17T03:13:02.015Z,26.26
2022-08-17T03:15:32.112Z,26.41
2022-08-17T03:18:01.205Z,26.56
2022-08-17T03:20:32.420Z,26.52
2022-08-17T03:23:01.991Z,26.60
2022-08-17T03:25:39.783Z,26.55
2022-08-17T03:28:08.169Z,26.72
2022-08-17T03:30:36.718Z,26.75
2022-08-17T03:33:11.440Z,26.75
2022-08-17T03:35:40.636Z,26.84
2022-08-17T03:38:10.448Z,26.69
2022-08-17T03:40:57.288Z,26.69
2022-08-17T03:43:32.497Z,26.59
2022-08-17T03:46:34.177Z,26.66
2022-08-17T03:49:26.065Z,26.66
2022-08-17T03:52:13.836Z,26.72
2022-08-17T03:55:00.701Z,26.81
2022-08-17T03:57:31.933Z,26.87
2022-08-17T03:59:59.933Z,26.94
2022-08-17T04:02:30.136Z,27.04
2022-08-17T04:04:58.500Z,27.05
2022-08-17T04:07:28.745Z,27.06
2022-08-17T04:09:58.296Z,27.25
2022-08-17T04:12:31.324Z,27.27
2022-08-17T04:14:59.509Z,27.25
2022-08-17T04:17:28.966Z,27.35
2022-08-17T04:19:56.982Z,27.37
2022-08-17T04:22:30.099Z,27.41
2022-08-17T04:25:07.006Z,27.46
2022-08-17T04:27:34.463Z,27.44
2022-08-17T04:30:02.342Z,27.33
2022-08-17T04:33:05.090Z,27.28
2022-08-17T04:35:22.577Z,27.39
2022-08-17T04:37:50.963Z,27.43
2022-08-17T04:40:38.373Z,27.33
2022-08-17T04:43:11.622Z,27.36
2022-08-17T04:45:55.450Z,27.34
2022-08-17T04:48:29.662Z,27.40
2022-08-17T04:51:10.201Z,27.41
2022-08-17T04:53:39.666Z,27.52
2022-08-17T04:56:07.620Z,27.52
2022-08-17T04:58:39.211Z,27.63
2022-08-17T05:01:07.652Z,27.67
2022-08-17T05:03:36.040Z,27.59
2022-08-17T05:06:04.309Z,27.64
2022-08-17T05:08:31.884Z,27.63
2022-08-17T05:11:00.367Z,27.55
2022-08-17T05:13:29.882Z,27.57
2022-08-17T05:16:00.380Z,27.66
2022-08-17T05:18:29.640Z,27.66
2022-08-17T05:20:58.579Z,27.71
2022-08-17T05:23:41.993Z,27.76
2022-08-17T05:26:26.319Z,27.78
2022-08-17T05:28:59.661Z,27.75
2022-08-17T05:31:29.944Z,27.87
2022-08-17T05:33:58.756Z,27.87
2022-08-17T05:36:42.397Z,27.88
2022-08-17T05:39:16.369Z,27.96
2022-08-17T05:41:50.581Z,27.99
2022-08-17T05:44:18.036Z,27.97
2022-08-17T05:46:51.771Z,28.07
2022-08-17T05:49:27.378Z,28.08
2022-08-17T05:52:26.934Z,28.20
2022-08-17T05:55:23.465Z,28.13
2022-08-17T05:57:54.194Z,28.19
2022-08-17T06:01:11.087Z,28.21
2022-08-17T06:04:16.001Z,28.31
2022-08-17T06:07:05.448Z,28.30
2022-08-17T06:09:44.782Z,28.34
2022-08-17T06:12:33.542Z,28.29
2022-08-17T06:15:36.800Z,28.39
2022-08-17T06:18:08.212Z,28.40
2022-08-17T06:21:01.871Z,28.44
2022-08-17T06:23:40.022Z,28.39
2022-08-17T06:26:38.325Z,28.47
2022-08-17T06:29:29.694Z,28.52
2022-08-17T06:31:57.975Z,28.58
2022-08-17T06:34:25.261Z,28.53
2022-08-17T06:37:18.984Z,28.78
2022-08-17T06:40:16.049Z,28.76
2022-08-17T06:43:12.850Z,28.74
2022-08-17T06:46:16.078Z,28.88
2022-08-17T06:48:49.360Z,28.83
2022-08-17T06:51:31.265Z,28.89
2022-08-17T06:54:10.806Z,28.90
2022-08-17T06:57:05.507Z,28.99
2022-08-17T06:59:55.490Z,29.03
2022-08-17T07:02:52.015Z,29.15
2022-08-17T07:05:33.417Z,29.09
2022-08-17T07:08:07.436Z,29.15
2022-08-17T07:10:48.509Z,29.20
2022-08-17T07:13:54.684Z,29.23
2022-08-17T07:16:34.452Z,29.17
2022-08-17T07:19:01.809Z,29.17
2022-08-17T07:22:06.332Z,29.27
2022-08-17T07:24:45.389Z,29.23
2022-08-17T07:27:40.926Z,29.22
2022-08-17T07:30:28.751Z,29.26
2022-08-17T07:33:02.413Z,29.25
2022-08-17T07:35:37.559Z,29.34
2022-08-17T07:38:26.341Z,29.37
2022-08-17T07:41:04.939Z,29.43
2022-08-17T07:43:41.340Z,29.44
2022-08-17T07:46:30.231Z,29.47
2022-08-17T07:49:06.877Z,29.51
2022-08-17T07:51:39.231Z,29.59
2022-08-17T07:54:15.841Z,29.60
2022-08-17T07:56:56.178Z,29.61
2022-08-17T07:59:28.650Z,29.57
2022-08-17T08:02:19.642Z,29.61
2022-08-17T08:05:13.098Z,29.68
2022-08-17T08:08:00.681Z,29.66
2022-08-17T08:10:44.995Z,29.67
2022-08-17T08:13:21.774Z,29.73
2022-08-17T08:15:55.496Z,29.69
2022-08-17T08:18:55.652Z,29.74
2022-08-17T08:21:54.982Z,29.81
2022-08-17T08:24:37.452Z,29.86
2022-08-17T08:27:31.148Z,29.86
2022-08-17T08:30:14.546Z,29.79
2022-08-17T08:33:00.301Z,29.82
2022-08-17T08:35:37.388Z,29.89
2022-08-17T08:38:20.211Z,29.90
2022-08-17T08:41:05.738Z,29.93
2022-08-17T08:44:06.186Z,29.92
2022-08-17T08:46:52.118Z,29.90
2022-08-17T08:50:09.496Z,29.90
2022-08-17T08:52:56.589Z,29.90
2022-08-17T08:55:52.500Z,29.96
2022-08-17T08:58:31.923Z,29.91
2022-08-17T09:01:23.440Z,29.91
2022-08-17T09:04:24.714Z,30.08
2022-08-17T09:07:07.958Z,30.06
2022-08-17T09:09:35.354Z,30.16
2022-08-17T09:12:30.286Z,30.21
2022-08-17T09:15:08.294Z,30.31
2022-08-17T09:17:59.275Z,30.34
2022-08-17T09:20:50.250Z,30.39
2022-08-17T09:23:45.354Z,30.57
2022-08-17T09:26:31.310Z,30.54
2022-08-17T09:29:03.491Z,30.55
2022-08-17T09:31:47.013Z,30.46
2022-08-17T09:34:28.188Z,30.52
2022-08-17T09:37:30.461Z,30.54
2022-08-17T09:40:10.585Z,30.53
2022-08-17T09:42:47.653Z,30.56
2022-08-17T09:45:27.335Z,30.63
2022-08-17T09:48:21.394Z,30.77
2022-08-17T09:51:05.815Z,30.76
2022-08-17T09:53:37.392Z,30.93
2022-08-17T09:56:26.832Z,31.07
2022-08-17T09:59:03.491Z,31.15
2022-08-17T10:02:15.522Z,31.24
2022-08-17T10:04:54.863Z,31.45
2022-08-17T10:07:40.884Z,31.47
2022-08-17T10:10:56.716Z,31.62
2022-08-17T10:14:01.749Z,31.67
2022-08-17T10:17:03.664Z,31.77
2022-08-17T10:19:49.013Z,31.82
2022-08-17T10:23:17.975Z,31.89
2022-08-17T10:26:05.741Z,31.72
2022-08-17T10:29:10.029Z,31.77
2022-08-17T10:32:08.834Z,31.86
2022-08-17T10:35:20.789Z,31.96
2022-08-17T10:37:48.160Z,31.85
2022-08-17T10:40:18.227Z,31.78
2022-08-17T10:42:57.293Z,31.76
2022-08-17T10:46:10.703Z,31.75
2022-08-17T10:48:39.887Z,31.76
2022-08-17T10:51:10.030Z,31.92
2022-08-17T10:53:43.713Z,31.87
2022-08-17T10:56:14.113Z,31.76
2022-08-17T10:58:54.173Z,31.57
2022-08-17T11:01:38.102Z,31.76
2022-08-17T11:04:11.969Z,31.92
2022-08-17T11:06:39.175Z,31.75
2022-08-17T11:09:31.019Z,31.74
2022-08-17T11:12:16.646Z,31.71
2022-08-17T11:15:24.199Z,31.67
2022-08-17T11:17:54.509Z,31.48
2022-08-17T11:20:28.281Z,31.31
2022-08-17T11:23:24.944Z,31.27
2022-08-17T11:25:55.601Z,31.14
2022-08-17T11:28:26.904Z,31.03
2022-08-17T11:30:56.510Z,31.07
2022-08-17T11:33:34.173Z,31.07
2022-08-17T11:36:16.262Z,31.03
2022-08-17T11:39:04.681Z,31.04
2022-08-17T11:41:49.089Z,30.94
2022-08-17T11:44:22.639Z,30.94
2022-08-17T11:47:28.025Z,30.94
2022-08-17T11:50:27.756Z,31.07
2022-08-17T11:52:55.987Z,31.04
2022-08-17T11:55:36.320Z,31.18
2022-08-17T11:58:25.251Z,31.20
2022-08-17T12:00:56.658Z,31.21
2022-08-17T12:03:34.670Z,31.25
2022-08-17T12:06:31.049Z,31.42
2022-08-17T12:09:16.733Z,31.59
2022-08-17T12:12:13.082Z,31.68
2022-08-17T12:17:40.356Z,31.81
2022-08-17T12:20:24.233Z,31.94
2022-08-17T12:23:10.063Z,31.91
2022-08-17T12:25:47.614Z,31.96
2022-08-17T12:28:27.492Z,31.97
2022-08-17T12:30:59.455Z,31.98
2022-08-17T12:33:28.848Z,31.90
2022-08-17T12:36:05.683Z,32.03
2022-08-17T12:38:36.372Z,32.08
2022-08-17T12:41:25.164Z,32.02
2022-08-17T12:44:04.413Z,32.06
2022-08-17T12:46:45.128Z,31.91
2022-08-17T12:49:25.363Z,31.99
2022-08-17T12:52:02.435Z,31.97
2022-08-17T12:54:37.507Z,31.94
2022-08-17T12:57:15.965Z,32.02
2022-08-17T12:59:48.812Z,31.93
2022-08-17T13:02:30.482Z,31.82
2022-08-17T13:05:01.041Z,31.89
2022-08-17T13:07:36.594Z,31.90
2022-08-17T13:10:04.487Z,31.73
2022-08-17T13:12:35.744Z,31.57
2022-08-17T13:15:03.935Z,31.46
2022-08-17T13:17:35.679Z,31.44
2022-08-17T13:20:06.861Z,31.40
2022-08-17T13:22:34.200Z,31.34
2022-08-17T13:25:09.493Z,31.32
2022-08-17T13:27:42.830Z,31.32
2022-08-17T13:30:12.648Z,31.39
2022-08-17T13:32:47.428Z,31.55
2022-08-17T13:35:41.425Z,31.78
2022-08-17T13:38:52.802Z,31.88
2022-08-17T13:41:35.337Z,32.03
2022-08-17T13:44:04.427Z,32.12
2022-08-17T13:46:33.275Z,32.17
2022-08-17T13:49:04.602Z,32.30
2022-08-17T13:51:36.480Z,32.44
2022-08-17T13:54:07.159Z,32.48
2022-08-17T13:56:53.556Z,32.51
2022-08-17T13:59:54.829Z,32.49
2022-08-17T14:02:27.759Z,32.31
2022-08-17T14:04:58.416Z,32.28
2022-08-17T14:07:32.600Z,32.31
2022-08-17T14:10:11.555Z,32.42
2022-08-17T14:12:41.917Z,32.44
2022-08-17T14:15:10.678Z,32.52
2022-08-17T14:17:39.191Z,32.64
2022-08-17T14:20:12.314Z,32.62
2022-08-17T14:22:44.829Z,32.71
2022-08-17T14:25:15.273Z,32.72
2022-08-17T14:27:52.428Z,32.66
2022-08-17T14:30:23.931Z,32.61
2022-08-17T14:32:52.291Z,32.49
2022-08-17T14:35:22.518Z,32.49
2022-08-17T14:37:51.045Z,32.34
2022-08-17T14:40:20.980Z,32.16
2022-08-17T14:42:48.645Z,32.03
2022-08-17T14:45:27.025Z,31.88
2022-08-17T14:48:04.271Z,31.80
2022-08-17T14:50:35.565Z,31.85
2022-08-17T14:53:05.710Z,31.77
2022-08-17T14:55:33.465Z,31.74
2022-08-17T14:58:01.064Z,31.76
2022-08-17T15:00:28.806Z,31.74
2022-08-17T15:02:58.872Z,31.84
2022-08-17T15:05:33.828Z,31.95
2022-08-17T15:08:02.872Z,31.98
2022-08-17T15:10:31.649Z,32.09
2022-08-17T15:13:00.126Z,32.14
2022-08-17T15:15:28.419Z,32.27
2022-08-17T15:17:56.428Z,32.27
2022-08-17T15:20:28.514Z,32.29
2022-08-17T15:22:57.631Z,32.22
2022-08-17T15:25:27.790Z,32.11
2022-08-17T15:27:56.089Z,32.14
2022-08-17T15:30:23.942Z,31.96
2022-08-17T15:32:55.276Z,31.83
2022-08-17T15:35:32.388Z,31.73
2022-08-17T15:38:08.015Z,31.53
2022-08-17T15:40:44.212Z,31.44
2022-08-17T15:43:34.742Z,31.37
2022-08-17T15:46:12.597Z,31.26
2022-08-17T15:48:42.348Z,31.22
2022-08-17T15:51:20.033Z,31.17
2022-08-17T15:53:53.512Z,31.10
2022-08-17T15:56:21.090Z,31.10
2022-08-17T15:58:49.937Z,30.88
2022-08-17T16:03:01.696Z,30.93
2022-08-17T16:04:26.510Z,30.86
2022-08-17T16:06:57.652Z,30.80
2022-08-17T16:09:24.877Z,30.61
2022-08-17T16:11:55.306Z,30.56
2022-08-17T16:14:24.505Z,30.50
2022-08-17T16:17:00.964Z,30.38
2022-08-17T16:19:28.318Z,30.32
2022-08-17T16:21:55.764Z,30.26
2022-08-17T16:24:23.162Z,30.25
2022-08-17T16:26:50.848Z,30.10
2022-08-17T16:29:18.092Z,30.15
2022-08-17T16:31:45.425Z,30.12
2022-08-17T16:34:17.371Z,29.91
2022-08-17T16:36:54.631Z,29.95
2022-08-17T16:39:24.851Z,29.92
2022-08-17T16:41:52.587Z,29.91
2022-08-17T16:44:21.525Z,29.70
2022-08-17T16:46:50.512Z,29.74
2022-08-17T16:49:32.436Z,29.65
2022-08-17T16:52:06.097Z,29.55
2022-08-17T16:54:35.673Z,29.52
2022-08-17T16:57:05.564Z,29.44
2022-08-17T16:59:42.120Z,29.26
2022-08-17T17:02:23.834Z,29.33
2022-08-17T17:05:01.553Z,29.15
2022-08-17T17:07:53.649Z,29.20
2022-08-17T17:10:26.719Z,29.08
2022-08-17T17:13:01.274Z,29.03
2022-08-17T17:15:45.577Z,29.08
2022-08-17T17:18:15.785Z,29.02
2022-08-17T17:21:01.658Z,29.08
2022-08-17T17:23:40.994Z,29.01
2022-08-17T17:26:20.742Z,28.70
2022-08-17T17:29:25.048Z,28.82
2022-08-17T17:32:29.736Z,28.86
2022-08-17T17:35:08.748Z,28.75
2022-08-17T17:37:36.524Z,28.69
2022-08-17T17:40:12.661Z,28.61
2022-08-17T17:42:43.209Z,28.59
2022-08-17T17:45:29.511Z,28.55
2022-08-17T17:47:57.353Z,28.45
2022-08-17T17:50:35.437Z,28.43
2022-08-17T17:53:10.756Z,28.50
2022-08-17T17:55:54.866Z,28.58
2022-08-17T17:58:52.356Z,28.48
2022-08-17T18:01:59.574Z,28.64
2022-08-17T18:04:37.650Z,28.51
2022-08-17T18:07:32.899Z,28.62
2022-08-17T18:10:19.720Z,28.59
2022-08-17T18:13:28.890Z,28.42
2022-08-17T18:16:00.878Z,28.30
2022-08-17T18:18:38.407Z,28.22
2022-08-17T18:21:20.062Z,28.21
2022-08-17T18:23:56.768Z,28.16
2022-08-17T18:26:33.488Z,28.25
2022-08-17T18:29:02.745Z,28.18
2022-08-17T18:31:30.079Z,28.15
2022-08-17T18:37:30.123Z,27.94
2022-08-17T18:39:57.406Z,27.89
2022-08-17T18:42:28.374Z,27.81
2022-08-17T18:44:56.495Z,27.82
2022-08-17T18:47:27.604Z,27.95
2022-08-17T18:50:27.178Z,28.03
2022-08-17T18:52:56.293Z,27.94
2022-08-17T18:55:29.204Z,27.91
2022-08-17T18:58:13.168Z,28.05
2022-08-17T19:00:42.947Z,27.88
2022-08-17T19:03:16.252Z,28.18
2022-08-17T19:05:52.301Z,28.24
2022-08-17T19:08:28.811Z,28.17
2022-08-17T19:10:58.034Z,28.14
2022-08-17T19:13:31.476Z,28.02
2022-08-17T19:16:16.076Z,28.08
2022-08-17T19:18:56.332Z,28.08
2022-08-17T19:21:34.991Z,27.70
2022-08-17T19:24:19.800Z,27.73
2022-08-17T19:26:56.527Z,27.74
2022-08-17T19:29:42.689Z,27.70
2022-08-17T19:32:12.681Z,27.64
2022-08-17T19:34:42.679Z,27.62
2022-08-17T19:37:30.114Z,27.62
2022-08-17T19:40:51.830Z,27.50
2022-08-17T19:43:55.628Z,27.57
2022-08-17T19:46:35.995Z,27.36
2022-08-17T19:49:33.169Z,27.34
2022-08-17T19:52:32.830Z,27.33
2022-08-17T19:55:43.841Z,27.36
2022-08-17T19:58:43.317Z,27.46
2022-08-17T20:01:20.901Z,27.40
2022-08-17T20:04:01.527Z,27.47
2022-08-17T20:06:33.283Z,27.39
2022-08-17T20:09:46.620Z,27.33
2022-08-17T20:12:21.186Z,27.25
2022-08-17T20:14:55.777Z,27.15
2022-08-17T20:17:41.785Z,27.17
2022-08-17T20:20:36.280Z,27.14
2022-08-17T20:23:21.816Z,27.09
2022-08-17T20:26:10.191Z,27.20
2022-08-17T20:28:39.758Z,27.17
2022-08-17T20:31:46.527Z,27.10
2022-08-17T20:34:30.825Z,27.26
2022-08-17T20:37:28.046Z,27.20
2022-08-17T20:39:56.439Z,27.11
2022-08-17T20:42:23.591Z,27.00
2022-08-17T20:44:58.180Z,26.90
2022-08-17T20:48:14.614Z,27.06
2022-08-17T20:50:43.567Z,26.96
2022-08-17T20:53:15.198Z,26.87
2022-08-17T20:55:52.463Z,26.86
2022-08-17T20:58:46.686Z,26.98
2022-08-17T21:01:20.580Z,27.01
2022-08-17T21:03:51.825Z,26.90
2022-08-17T21:06:22.067Z,26.87
2022-08-17T21:08:55.288Z,26.90
2022-08-17T21:12:03.120Z,26.86
2022-08-17T21:14:37.558Z,27.07
2022-08-17T21:17:39.925Z,26.97
2022-08-17T21:20:27.815Z,26.99
2022-08-17T21:23:08.397Z,27.03
2022-08-17T21:26:30.169Z,27.03
2022-08-17T21:29:31.376Z,27.17
2022-08-17T21:32:00.869Z,27.18
2022-08-17T21:35:07.842Z,27.07
2022-08-17T21:37:44.137Z,26.89
2022-08-17T21:40:11.433Z,26.96
2022-08-17T21:42:47.925Z,26.89
2022-08-17T21:45:35.923Z,26.95
2022-08-17T21:48:09.110Z,27.07
2022-08-17T21:50:37.452Z,27.10
2022-08-17T21:53:05.850Z,27.08
2022-08-17T21:55:36.290Z,26.92
2022-08-17T21:58:27.424Z,27.04
2022-08-17T22:01:25.456Z,26.92
2022-08-17T22:04:11.551Z,26.75
2022-08-17T22:06:56.760Z,26.85
2022-08-17T22:09:34.787Z,26.81
2022-08-17T22:12:06.629Z,26.78
2022-08-17T22:14:53.471Z,26.83
2022-08-17T22:17:31.447Z,26.89
2022-08-17T22:20:06.242Z,26.92
2022-08-17T22:22:57.391Z,26.86
2022-08-17T22:25:27.257Z,26.87
2022-08-17T22:27:58.090Z,26.91
2022-08-17T22:30:27.691Z,26.82
2022-08-17T22:32:55.614Z,26.77
2022-08-17T22:35:34.972Z,26.78
2022-08-17T22:38:20.559Z,26.76
2022-08-17T22:41:19.509Z,26.83
2022-08-17T22:43:46.995Z,26.71
2022-08-17T22:46:15.642Z,26.57
2022-08-17T22:48:50.393Z,26.47
2022-08-17T22:51:28.547Z,26.28
2022-08-17T22:54:31.684Z,26.38
2022-08-17T22:57:21.646Z,26.25
2022-08-17T22:59:55.874Z,26.27
2022-08-17T23:02:35.545Z,26.09
2022-08-17T23:05:17.666Z,26.17
2022-08-17T23:07:46.820Z,26.18
2022-08-17T23:10:15.083Z,26.18
2022-08-17T23:12:43.558Z,26.08
2022-08-17T23:15:16.049Z,26.04
2022-08-17T23:17:49.770Z,25.97
2022-08-17T23:20:17.894Z,25.81
2022-08-17T23:22:52.177Z,25.91
2022-08-17T23:25:28.325Z,26.12
2022-08-17T23:27:57.543Z,26.00
2022-08-17T23:30:25.766Z,25.85
2022-08-17T23:32:54.477Z,25.68
2022-08-17T23:35:40.030Z,25.83
2022-08-17T23:38:12.636Z,25.83
2022-08-17T23:40:41.001Z,25.76
2022-08-17T23:43:24.425Z,25.69
2022-08-17T23:45:59.866Z,25.72
2022-08-17T23:48:35.377Z,25.85
2022-08-17T23:51:14.723Z,25.74
2022-08-17T23:53:47.456Z,25.78
2022-08-17T23:56:15.783Z,25.71
2022-08-17T23:58:47.858Z,25.67
